THY90Q LIMC-LTFM
Flight info
| Callsign | THY90Q |
|---|---|
| Flight time | N/A |
| Altitude | 41000 |
| Route | SRN6LXVAKON1Q/35R VAKON DCT OTKEK DCT LABIN DCT NISVA DCT DEDIN L614 GERGI T391 AYTEK AYTEK1Q |
| Aircraft | A333/H-SDE3GHIJ2J3J5M1RVWXY/LB2D1 |
Departure
| Time | 2026-05-05 22:22 |
|---|---|
| Airport | Milan Malpensa International Airport (LIMC) |
Arrival
| Time | N/A |
|---|---|
| Airport | İstanbul Airport (LTFM) |
| Time | Latitude | Longitude | Altitude | Speed | Heading |
|---|---|---|---|---|---|
| 2026-05-05 21:45 | 45.63137 | 8.71580 | 744 ft | 0 kts | 259° |
| 2026-05-05 22:07 | 45.63140 | 8.71601 | 740 ft | 3 kts | 257° |
| 2026-05-05 22:08 | 45.63144 | 8.71627 | 742 ft | 3 kts | 256° |
| 2026-05-05 22:08 | 45.63150 | 8.71653 | 744 ft | 3 kts | 234° |
| 2026-05-05 22:08 | 45.63160 | 8.71676 | 740 ft | 3 kts | 220° |
| 2026-05-05 22:08 | 45.63178 | 8.71688 | 742 ft | 3 kts | 175° |
| 2026-05-05 22:09 | 45.63196 | 8.71682 | 740 ft | 2 kts | 171° |
| 2026-05-05 22:11 | 45.63193 | 8.71682 | 740 ft | 1 kts | 171° |
| 2026-05-05 22:11 | 45.63164 | 8.71689 | 741 ft | 8 kts | 171° |
| 2026-05-05 22:11 | 45.63101 | 8.71705 | 743 ft | 10 kts | 169° |
| 2026-05-05 22:12 | 45.63028 | 8.71725 | 740 ft | 12 kts | 169° |
| 2026-05-05 22:12 | 45.62978 | 8.71784 | 741 ft | 10 kts | 107° |
| 2026-05-05 22:12 | 45.62983 | 8.71885 | 742 ft | 11 kts | 80° |
| 2026-05-05 22:12 | 45.62995 | 8.71985 | 744 ft | 8 kts | 87° |
| 2026-05-05 22:13 | 45.62963 | 8.72047 | 743 ft | 8 kts | 150° |
| 2026-05-05 22:13 | 45.62905 | 8.72071 | 743 ft | 9 kts | 167° |
| 2026-05-05 22:13 | 45.62836 | 8.72091 | 742 ft | 11 kts | 171° |
| 2026-05-05 22:13 | 45.62759 | 8.72111 | 742 ft | 12 kts | 168° |
| 2026-05-05 22:14 | 45.62673 | 8.72136 | 742 ft | 13 kts | 170° |
| 2026-05-05 22:14 | 45.62577 | 8.72161 | 743 ft | 15 kts | 169° |
| 2026-05-05 22:14 | 45.62472 | 8.72190 | 741 ft | 16 kts | 169° |
| 2026-05-05 22:14 | 45.62358 | 8.72222 | 742 ft | 17 kts | 169° |
| 2026-05-05 22:15 | 45.62229 | 8.72258 | 741 ft | 21 kts | 169° |
| 2026-05-05 22:15 | 45.62028 | 8.72313 | 742 ft | 41 kts | 169° |
| 2026-05-05 22:15 | 45.61805 | 8.72375 | 742 ft | 26 kts | 169° |
| 2026-05-05 22:15 | 45.61647 | 8.72419 | 743 ft | 23 kts | 169° |
| 2026-05-05 22:16 | 45.61487 | 8.72462 | 743 ft | 24 kts | 169° |
| 2026-05-05 22:16 | 45.61318 | 8.72509 | 744 ft | 25 kts | 169° |
| 2026-05-05 22:16 | 45.61171 | 8.72549 | 741 ft | 17 kts | 169° |
| 2026-05-05 22:16 | 45.61088 | 8.72602 | 741 ft | 11 kts | 121° |
| 2026-05-05 22:17 | 45.61082 | 8.72690 | 743 ft | 8 kts | 83° |
| 2026-05-05 22:17 | 45.61092 | 8.72770 | 745 ft | 8 kts | 80° |
| 2026-05-05 22:17 | 45.61102 | 8.72858 | 743 ft | 10 kts | 80° |
| 2026-05-05 22:17 | 45.61117 | 8.72962 | 743 ft | 12 kts | 78° |
| 2026-05-05 22:18 | 45.61155 | 8.73067 | 743 ft | 11 kts | 43° |
| 2026-05-05 22:18 | 45.61218 | 8.73131 | 742 ft | 12 kts | 34° |
| 2026-05-05 22:18 | 45.61291 | 8.73202 | 743 ft | 13 kts | 34° |
| 2026-05-05 22:18 | 45.61374 | 8.73261 | 743 ft | 13 kts | 9° |
| 2026-05-05 22:19 | 45.61461 | 8.73251 | 744 ft | 13 kts | 349° |
| 2026-05-05 22:19 | 45.61551 | 8.73226 | 744 ft | 13 kts | 348° |
| 2026-05-05 22:19 | 45.61607 | 8.73246 | 743 ft | 8 kts | 51° |
| 2026-05-05 22:19 | 45.61624 | 8.73329 | 744 ft | 9 kts | 79° |
| 2026-05-05 22:20 | 45.61630 | 8.73425 | 744 ft | 9 kts | 101° |
| 2026-05-05 22:20 | 45.61603 | 8.73505 | 741 ft | 9 kts | 117° |
| 2026-05-05 22:20 | 45.61587 | 8.73594 | 745 ft | 9 kts | 91° |
| 2026-05-05 22:20 | 45.61597 | 8.73696 | 741 ft | 11 kts | 76° |
| 2026-05-05 22:21 | 45.61619 | 8.73726 | 742 ft | 3 kts | 9° |
| 2026-05-05 22:21 | 45.61692 | 8.73716 | 740 ft | 21 kts | 350° |
| 2026-05-05 22:21 | 45.62048 | 8.73618 | 740 ft | 84 kts | 349° |
| 2026-05-05 22:21 | 45.62824 | 8.73403 | 743 ft | 142 kts | 349° |
| 2026-05-05 22:22 | 45.63952 | 8.73085 | 949 ft | 178 kts | 348° |
| 2026-05-05 22:22 | 45.65165 | 8.72780 | 1832 ft | 173 kts | 356° |
| 2026-05-05 22:22 | 45.66393 | 8.73088 | 2350 ft | 192 kts | 31° |
| 2026-05-05 22:22 | 45.67263 | 8.74565 | 2932 ft | 201 kts | 77° |
| 2026-05-05 22:23 | 45.67260 | 8.76546 | 3816 ft | 202 kts | 99° |
| 2026-05-05 22:23 | 45.67082 | 8.78560 | 4725 ft | 206 kts | 99° |
| 2026-05-05 22:23 | 45.66882 | 8.80600 | 5638 ft | 209 kts | 99° |
| 2026-05-05 22:23 | 45.66817 | 8.82695 | 6557 ft | 213 kts | 90° |
| 2026-05-05 22:24 | 45.66908 | 8.84820 | 7459 ft | 215 kts | 86° |
| 2026-05-05 22:24 | 45.67121 | 8.86945 | 8380 ft | 217 kts | 81° |
| 2026-05-05 22:24 | 45.67371 | 8.89114 | 9142 ft | 227 kts | 89° |
| 2026-05-05 22:24 | 45.67403 | 8.91420 | 9869 ft | 237 kts | 93° |
| 2026-05-05 22:25 | 45.67331 | 8.93804 | 10569 ft | 243 kts | 97° |
| 2026-05-05 22:25 | 45.67128 | 8.96231 | 11264 ft | 250 kts | 103° |
| 2026-05-05 22:25 | 45.66748 | 8.98742 | 11677 ft | 269 kts | 107° |
| 2026-05-05 22:25 | 45.66266 | 9.01447 | 12007 ft | 292 kts | 107° |
| 2026-05-05 22:26 | 45.65730 | 9.04364 | 12310 ft | 314 kts | 107° |
| 2026-05-05 22:26 | 45.65164 | 9.07438 | 12627 ft | 334 kts | 107° |
| 2026-05-05 22:26 | 45.64558 | 9.10736 | 13028 ft | 352 kts | 107° |
| 2026-05-05 22:26 | 45.63928 | 9.14171 | 13669 ft | 360 kts | 107° |
| 2026-05-05 22:27 | 45.63290 | 9.17653 | 14338 ft | 366 kts | 108° |
| 2026-05-05 22:27 | 45.62638 | 9.21198 | 15017 ft | 371 kts | 108° |
| 2026-05-05 22:27 | 45.61977 | 9.24784 | 15704 ft | 376 kts | 108° |
| 2026-05-05 22:27 | 45.61306 | 9.28415 | 16394 ft | 380 kts | 108° |
| 2026-05-05 22:28 | 45.60625 | 9.32092 | 17077 ft | 385 kts | 109° |
| 2026-05-05 22:28 | 45.59935 | 9.35809 | 17768 ft | 390 kts | 109° |
| 2026-05-05 22:28 | 45.59235 | 9.39567 | 18564 ft | 394 kts | 109° |
| 2026-05-05 22:28 | 45.58525 | 9.43373 | 19096 ft | 399 kts | 109° |
| 2026-05-05 22:29 | 45.57806 | 9.47224 | 19681 ft | 403 kts | 109° |
| 2026-05-05 22:29 | 45.57080 | 9.51104 | 20250 ft | 407 kts | 110° |
| 2026-05-05 22:29 | 45.56344 | 9.55027 | 20854 ft | 410 kts | 110° |
| 2026-05-05 22:29 | 45.55604 | 9.58968 | 21427 ft | 413 kts | 110° |
| 2026-05-05 22:30 | 45.54855 | 9.62943 | 22028 ft | 416 kts | 111° |
| 2026-05-05 22:30 | 45.54101 | 9.66940 | 22580 ft | 419 kts | 111° |
| 2026-05-05 22:30 | 45.53338 | 9.70972 | 23024 ft | 423 kts | 111° |
| 2026-05-05 22:30 | 45.52568 | 9.75032 | 23568 ft | 426 kts | 111° |
| 2026-05-05 22:31 | 45.51791 | 9.79123 | 23979 ft | 430 kts | 112° |
| 2026-05-05 22:31 | 45.51001 | 9.83264 | 24335 ft | 435 kts | 112° |
| 2026-05-05 22:31 | 45.50202 | 9.87450 | 24730 ft | 439 kts | 112° |
| 2026-05-05 22:31 | 45.49396 | 9.91665 | 25138 ft | 443 kts | 112° |
| 2026-05-05 22:32 | 45.48580 | 9.95924 | 25523 ft | 447 kts | 112° |
| 2026-05-05 22:32 | 45.47773 | 10.00160 | 25923 ft | 451 kts | 111° |
| 2026-05-05 22:32 | 45.46995 | 10.04514 | 26310 ft | 456 kts | 110° |
| 2026-05-05 22:32 | 45.46247 | 10.08918 | 26699 ft | 460 kts | 110° |
| 2026-05-05 22:33 | 45.45499 | 10.13425 | 27086 ft | 464 kts | 110° |
| 2026-05-05 22:33 | 45.44765 | 10.17864 | 27410 ft | 468 kts | 110° |
| 2026-05-05 22:33 | 45.44011 | 10.22393 | 27776 ft | 472 kts | 110° |
| 2026-05-05 22:33 | 45.43246 | 10.26961 | 28156 ft | 476 kts | 110° |
| 2026-05-05 22:34 | 45.42470 | 10.31555 | 28535 ft | 479 kts | 110° |
| 2026-05-05 22:34 | 45.41672 | 10.36244 | 28899 ft | 483 kts | 110° |
| 2026-05-05 22:34 | 45.40886 | 10.40844 | 29279 ft | 486 kts | 110° |
| 2026-05-05 22:34 | 45.40082 | 10.45537 | 29626 ft | 490 kts | 110° |
| 2026-05-05 22:35 | 45.39268 | 10.50264 | 29988 ft | 494 kts | 110° |
| 2026-05-05 22:35 | 45.38447 | 10.55023 | 30241 ft | 497 kts | 110° |
| 2026-05-05 22:35 | 45.37618 | 10.59815 | 30563 ft | 500 kts | 110° |
| 2026-05-05 22:35 | 45.36789 | 10.64634 | 30898 ft | 503 kts | 110° |
| 2026-05-05 22:36 | 45.36008 | 10.69565 | 31234 ft | 507 kts | 109° |
| 2026-05-05 22:36 | 45.35290 | 10.74430 | 31552 ft | 510 kts | 108° |
| 2026-05-05 22:36 | 45.34583 | 10.79383 | 31869 ft | 513 kts | 108° |
| 2026-05-05 22:36 | 45.33876 | 10.84365 | 32228 ft | 514 kts | 108° |
| 2026-05-05 22:37 | 45.33167 | 10.89334 | 32649 ft | 513 kts | 108° |
| 2026-05-05 22:37 | 45.32450 | 10.94308 | 33031 ft | 514 kts | 108° |
| 2026-05-05 22:37 | 45.31714 | 10.99347 | 33438 ft | 514 kts | 108° |
| 2026-05-05 22:37 | 45.30993 | 11.04235 | 33853 ft | 513 kts | 109° |
| 2026-05-05 22:38 | 45.30257 | 11.09194 | 34232 ft | 512 kts | 109° |
| 2026-05-05 22:38 | 45.29522 | 11.14129 | 34674 ft | 509 kts | 108° |
| 2026-05-05 22:38 | 45.28791 | 11.19032 | 35150 ft | 506 kts | 108° |
| 2026-05-05 22:38 | 45.28062 | 11.23898 | 35606 ft | 502 kts | 108° |
| 2026-05-05 22:39 | 45.27334 | 11.28735 | 36050 ft | 500 kts | 107° |
| 2026-05-05 22:39 | 45.26608 | 11.33545 | 36440 ft | 497 kts | 107° |
| 2026-05-05 22:39 | 45.25881 | 11.38338 | 36817 ft | 496 kts | 107° |
| 2026-05-05 22:39 | 45.25155 | 11.43114 | 37191 ft | 494 kts | 107° |
| 2026-05-05 22:40 | 45.24431 | 11.47866 | 37569 ft | 492 kts | 107° |
| 2026-05-05 22:40 | 45.23709 | 11.52588 | 37949 ft | 490 kts | 106° |
| 2026-05-05 22:40 | 45.22987 | 11.57298 | 38326 ft | 488 kts | 106° |
| 2026-05-05 22:40 | 45.22266 | 11.61989 | 38656 ft | 486 kts | 106° |
| 2026-05-05 22:41 | 45.21544 | 11.66671 | 38897 ft | 485 kts | 106° |
| 2026-05-05 22:41 | 45.20821 | 11.71344 | 39099 ft | 485 kts | 106° |
| 2026-05-05 22:41 | 45.20098 | 11.76006 | 39293 ft | 485 kts | 106° |
| 2026-05-05 22:41 | 45.19371 | 11.80678 | 39492 ft | 485 kts | 106° |
| 2026-05-05 22:42 | 45.18643 | 11.85346 | 39700 ft | 485 kts | 106° |
| 2026-05-05 22:42 | 45.17912 | 11.90020 | 39881 ft | 485 kts | 106° |
| 2026-05-05 22:42 | 45.17182 | 11.94682 | 40076 ft | 485 kts | 106° |
| 2026-05-05 22:42 | 45.16448 | 11.99347 | 40266 ft | 485 kts | 106° |
| 2026-05-05 22:43 | 45.15712 | 12.04014 | 40381 ft | 486 kts | 105° |
| 2026-05-05 22:43 | 45.14972 | 12.08694 | 40539 ft | 487 kts | 105° |
| 2026-05-05 22:43 | 45.14231 | 12.13369 | 40734 ft | 486 kts | 106° |
| 2026-05-05 22:43 | 45.13488 | 12.18043 | 40923 ft | 486 kts | 106° |
| 2026-05-05 22:44 | 45.12741 | 12.22723 | 40964 ft | 489 kts | 106° |
| 2026-05-05 22:44 | 45.11233 | 12.32136 | 40965 ft | 490 kts | 106° |
| 2026-05-05 22:45 | 45.09719 | 12.41543 | 40967 ft | 490 kts | 105° |
| 2026-05-05 22:45 | 45.08194 | 12.50960 | 40968 ft | 491 kts | 105° |
| 2026-05-05 22:46 | 45.06661 | 12.60373 | 40970 ft | 491 kts | 105° |
| 2026-05-05 22:46 | 45.05119 | 12.69791 | 40969 ft | 491 kts | 106° |
| 2026-05-05 22:47 | 45.03569 | 12.79203 | 40967 ft | 491 kts | 105° |
| 2026-05-05 22:47 | 45.02012 | 12.88606 | 40969 ft | 491 kts | 105° |
| 2026-05-05 22:48 | 45.00448 | 12.98002 | 40974 ft | 491 kts | 106° |
| 2026-05-05 22:48 | 44.99143 | 13.05802 | 40976 ft | 491 kts | 106° |
| 2026-05-05 22:49 | 44.97597 | 13.15201 | 40982 ft | 492 kts | 105° |
| 2026-05-05 22:49 | 44.96096 | 13.24618 | 40997 ft | 491 kts | 105° |
| 2026-05-05 22:50 | 44.94591 | 13.34033 | 40986 ft | 492 kts | 105° |
| 2026-05-05 22:50 | 44.93074 | 13.43441 | 41002 ft | 492 kts | 105° |
| 2026-05-05 22:51 | 44.91546 | 13.52836 | 41003 ft | 491 kts | 105° |
| 2026-05-05 22:51 | 44.90010 | 13.62218 | 41014 ft | 491 kts | 105° |
| 2026-05-05 22:52 | 44.88466 | 13.71594 | 41019 ft | 491 kts | 105° |
| 2026-05-05 22:52 | 44.86916 | 13.80963 | 41023 ft | 491 kts | 105° |
| 2026-05-05 22:53 | 44.85358 | 13.90323 | 41022 ft | 490 kts | 105° |
| 2026-05-05 22:53 | 44.83805 | 13.99608 | 41017 ft | 490 kts | 105° |
| 2026-05-05 22:54 | 44.82234 | 14.08947 | 41022 ft | 490 kts | 105° |
| 2026-05-05 22:54 | 44.80656 | 14.18278 | 41010 ft | 490 kts | 105° |
| 2026-05-05 22:55 | 44.79070 | 14.27602 | 41023 ft | 491 kts | 105° |
| 2026-05-05 22:55 | 44.77469 | 14.36969 | 41024 ft | 492 kts | 105° |
| 2026-05-05 22:56 | 44.75863 | 14.46316 | 41025 ft | 492 kts | 105° |
| 2026-05-05 22:56 | 44.74249 | 14.55665 | 41024 ft | 492 kts | 105° |
| 2026-05-05 22:57 | 44.72622 | 14.65032 | 41027 ft | 494 kts | 105° |
| 2026-05-05 22:57 | 44.70985 | 14.74408 | 41029 ft | 494 kts | 105° |
| 2026-05-05 22:58 | 44.69339 | 14.83789 | 41030 ft | 494 kts | 105° |
| 2026-05-05 22:58 | 44.67685 | 14.93168 | 41031 ft | 494 kts | 105° |
| 2026-05-05 22:59 | 44.66025 | 15.02535 | 41031 ft | 494 kts | 105° |
| 2026-05-05 22:59 | 44.64357 | 15.11894 | 41032 ft | 494 kts | 105° |
| 2026-05-05 23:00 | 44.61842 | 15.25919 | 41024 ft | 494 kts | 105° |
| 2026-05-05 23:00 | 44.60161 | 15.35235 | 41037 ft | 491 kts | 105° |
| 2026-05-05 23:01 | 44.58481 | 15.44495 | 41037 ft | 489 kts | 105° |
| 2026-05-05 23:01 | 44.56806 | 15.53684 | 41037 ft | 489 kts | 105° |
| 2026-05-05 23:02 | 44.55101 | 15.62983 | 41027 ft | 489 kts | 105° |
| 2026-05-05 23:02 | 44.53405 | 15.72198 | 41038 ft | 486 kts | 105° |
| 2026-05-05 23:03 | 44.51721 | 15.81297 | 41041 ft | 485 kts | 105° |
| 2026-05-05 23:03 | 44.50021 | 15.90441 | 41047 ft | 486 kts | 105° |